This is the latest recevied weather packets stored in our database for station/object SV9FBP. If no packets are shown the sender has not sent any weather packets the latest 1 day(s).
| Time | Temp. | Humidity | Pressure | Rain* | Wind** | Luminosity | Snow |
|---|---|---|---|---|---|---|---|
| 1778100949 | 17.22° C | 78% | 1016.5 hPa | 0 mm | - | - | - |
| 1778100047 | 17.22° C | 78% | 1016.7 hPa | 0 mm | - | - | - |
| 1778099145 | 17.22° C | 78% | 1016.8 hPa | 0 mm | - | - | - |
| 1778098244 | 17.78° C | 74% | 1016.6 hPa | 0 mm | - | - | - |
| 1778097341 | 17.78° C | 73% | 1016.6 hPa | 0 mm | - | - | - |
| 1778094635 | 18.33° C | 73% | 1016.3 hPa | 0 mm | - | - | - |
| 1778093733 | 18.89° C | 73% | 1016.2 hPa | 0 mm | - | - | - |
| 1778091026 | 19.44° C | 72% | 1015.8 hPa | 0 mm | - | - | - |
| 1778090124 | 19.44° C | 72% | 1015.6 hPa | 0 mm | - | - | - |
| 1778088320 | 19.44° C | 71% | 1015.6 hPa | 0 mm | - | - | - |
| 1778086515 | 20° C | 70% | 1015.6 hPa | 0 mm | - | - | - |
| 1778085613 | 20° C | 68% | 1015.5 hPa | 0 mm | - | - | - |
| 1778084710 | 20.56° C | 67% | 1015.4 hPa | 0 mm | - | - | - |
| 1778083808 | 20.56° C | 66% | 1015.4 hPa | 0 mm | - | - | - |
| 1778082906 | 21.11° C | 65% | 1015.3 hPa | 0 mm | - | - | - |
| 1778082005 | 21.11° C | 62% | 1015.4 hPa | 0 mm | - | - | - |
| 1778077494 | 22.78° C | 60% | 1015.7 hPa | 0 mm | - | - | - |
| 1778074787 | 23.33° C | 59% | 1015.8 hPa | 0 mm | - | - | - |
| 1778072983 | 24.44° C | 56% | 1015.9 hPa | 0 mm | - | - | - |
| 1778071178 | 25° C | 58% | 1015.9 hPa | 0 mm | - | - | - |
| 1778070276 | 25° C | 59% | 1016.1 hPa | 0 mm | - | - | - |
| 1778067574 | 25° C | 60% | 1016.5 hPa | 0 mm | - | - | - |
| 1778063961 | 24.44° C | 59% | 1016.4 hPa | 0 mm | - | - | - |
| 1778063059 | 23.33° C | 59% | 1016.4 hPa | 0 mm | - | - | - |
| 1778061255 | 21.67° C | 64% | 1016.2 hPa | 0 mm | - | - | - |
* Rain latest hour (hover to see other rain measurements)
** Current wind speed in m/s (hover to see current wind gust speed)